sensor_id;sensor_type;location;lat;lon;timestamp;temperature;humidity
76537;DHT22;65381;51.254;15.592;2023-02-22T00:01:01;6.50;84.40
76537;DHT22;65381;51.254;15.592;2023-02-22T00:03:35;6.50;84.40
76537;DHT22;65381;51.254;15.592;2023-02-22T00:06:04;6.50;84.40
76537;DHT22;65381;51.254;15.592;2023-02-22T00:08:35;6.50;84.50
76537;DHT22;65381;51.254;15.592;2023-02-22T00:11:08;6.50;84.40
76537;DHT22;65381;51.254;15.592;2023-02-22T00:13:38;6.50;84.30
76537;DHT22;65381;51.254;15.592;2023-02-22T00:16:06;6.50;84.40
76537;DHT22;65381;51.254;15.592;2023-02-22T00:18:35;6.50;84.50
76537;DHT22;65381;51.254;15.592;2023-02-22T00:21:06;6.50;84.40
76537;DHT22;65381;51.254;15.592;2023-02-22T00:23:40;6.40;84.40
76537;DHT22;65381;51.254;15.592;2023-02-22T00:26:09;6.40;84.10
76537;DHT22;65381;51.254;15.592;2023-02-22T00:28:38;6.40;84.20
76537;DHT22;65381;51.254;15.592;2023-02-22T00:31:07;6.40;84.40
76537;DHT22;65381;51.254;15.592;2023-02-22T00:33:38;6.40;84.40
76537;DHT22;65381;51.254;15.592;2023-02-22T00:36:07;6.40;84.40
76537;DHT22;65381;51.254;15.592;2023-02-22T00:38:41;6.40;84.40
76537;DHT22;65381;51.254;15.592;2023-02-22T00:41:09;6.40;84.40
76537;DHT22;65381;51.254;15.592;2023-02-22T00:43:38;6.50;84.30
76537;DHT22;65381;51.254;15.592;2023-02-22T00:46:06;6.40;84.30
76537;DHT22;65381;51.254;15.592;2023-02-22T00:48:35;6.40;84.30
76537;DHT22;65381;51.254;15.592;2023-02-22T00:51:03;6.30;84.40
76537;DHT22;65381;51.254;15.592;2023-02-22T00:53:31;6.30;84.40
76537;DHT22;65381;51.254;15.592;2023-02-22T00:56:00;6.30;84.40
76537;DHT22;65381;51.254;15.592;2023-02-22T00:58:29;6.20;84.50
76537;DHT22;65381;51.254;15.592;2023-02-22T01:00:57;6.20;84.40
76537;DHT22;65381;51.254;15.592;2023-02-22T01:03:27;6.10;84.50
76537;DHT22;65381;51.254;15.592;2023-02-22T01:05:56;6.10;84.60
76537;DHT22;65381;51.254;15.592;2023-02-22T01:08:24;6.10;84.60
76537;DHT22;65381;51.254;15.592;2023-02-22T01:10:52;6.00;84.70
76537;DHT22;65381;51.254;15.592;2023-02-22T01:13:20;6.00;84.70
76537;DHT22;65381;51.254;15.592;2023-02-22T01:15:49;6.00;84.70
76537;DHT22;65381;51.254;15.592;2023-02-22T01:18:18;6.00;84.80
76537;DHT22;65381;51.254;15.592;2023-02-22T01:20:49;6.00;84.70
76537;DHT22;65381;51.254;15.592;2023-02-22T01:23:17;6.00;84.70
76537;DHT22;65381;51.254;15.592;2023-02-22T01:25:45;6.00;84.70
76537;DHT22;65381;51.254;15.592;2023-02-22T01:28:14;6.00;84.70
76537;DHT22;65381;51.254;15.592;2023-02-22T01:30:42;6.00;84.70
76537;DHT22;65381;51.254;15.592;2023-02-22T01:33:10;6.00;84.70
76537;DHT22;65381;51.254;15.592;2023-02-22T01:35:39;6.00;84.70
76537;DHT22;65381;51.254;15.592;2023-02-22T01:38:09;6.00;84.80
76537;DHT22;65381;51.254;15.592;2023-02-22T01:40:41;5.90;84.80
76537;DHT22;65381;51.254;15.592;2023-02-22T01:43:22;5.90;84.90
76537;DHT22;65381;51.254;15.592;2023-02-22T01:46:02;5.90;84.80
76537;DHT22;65381;51.254;15.592;2023-02-22T01:48:33;5.90;84.90
76537;DHT22;65381;51.254;15.592;2023-02-22T01:51:17;5.90;84.90
76537;DHT22;65381;51.254;15.592;2023-02-22T01:56:17;5.90;84.90
76537;DHT22;65381;51.254;15.592;2023-02-22T01:59:04;5.90;84.90
76537;DHT22;65381;51.254;15.592;2023-02-22T02:01:37;5.90;84.90
76537;DHT22;65381;51.254;15.592;2023-02-22T02:04:10;5.90;84.90
76537;DHT22;65381;51.254;15.592;2023-02-22T02:06:39;5.90;84.80
76537;DHT22;65381;51.254;15.592;2023-02-22T02:09:14;5.90;84.90
76537;DHT22;65381;51.254;15.592;2023-02-22T02:11:43;5.90;84.90
76537;DHT22;65381;51.254;15.592;2023-02-22T02:14:13;5.90;85.00
76537;DHT22;65381;51.254;15.592;2023-02-22T02:16:45;6.00;85.00
76537;DHT22;65381;51.254;15.592;2023-02-22T02:19:54;6.00;85.00
76537;DHT22;65381;51.254;15.592;2023-02-22T02:22:56;6.00;85.00
76537;DHT22;65381;51.254;15.592;2023-02-22T02:34:28;5.90;84.80
76537;DHT22;65381;51.254;15.592;2023-02-22T02:37:30;5.90;84.80
76537;DHT22;65381;51.254;15.592;2023-02-22T02:49:18;6.00;84.80
76537;DHT22;65381;51.254;15.592;2023-02-22T02:51:51;6.00;84.70
76537;DHT22;65381;51.254;15.592;2023-02-22T02:54:21;6.00;84.70
76537;DHT22;65381;51.254;15.592;2023-02-22T02:56:51;6.00;84.70
76537;DHT22;65381;51.254;15.592;2023-02-22T02:59:34;6.00;84.70
76537;DHT22;65381;51.254;15.592;2023-02-22T03:02:17;5.90;84.80
76537;DHT22;65381;51.254;15.592;2023-02-22T03:10:40;5.90;84.90
76537;DHT22;65381;51.254;15.592;2023-02-22T03:15:53;6.00;84.70
76537;DHT22;65381;51.254;15.592;2023-02-22T03:18:31;6.00;84.80
76537;DHT22;65381;51.254;15.592;2023-02-22T03:23:39;5.90;84.70
76537;DHT22;65381;51.254;15.592;2023-02-22T03:26:18;5.90;84.70
76537;DHT22;65381;51.254;15.592;2023-02-22T03:28:55;5.80;84.80
76537;DHT22;65381;51.254;15.592;2023-02-22T03:31:28;5.80;85.00
76537;DHT22;65381;51.254;15.592;2023-02-22T03:34:01;5.80;85.00
76537;DHT22;65381;51.254;15.592;2023-02-22T03:36:35;5.80;85.00
76537;DHT22;65381;51.254;15.592;2023-02-22T03:39:09;5.80;85.00
76537;DHT22;65381;51.254;15.592;2023-02-22T03:41:39;5.80;85.00
76537;DHT22;65381;51.254;15.592;2023-02-22T03:44:11;5.80;85.00
76537;DHT22;65381;51.254;15.592;2023-02-22T03:46:42;5.80;85.00
76537;DHT22;65381;51.254;15.592;2023-02-22T03:49:13;5.80;85.10
76537;DHT22;65381;51.254;15.592;2023-02-22T03:51:43;5.80;85.00
76537;DHT22;65381;51.254;15.592;2023-02-22T03:54:11;5.80;85.10
76537;DHT22;65381;51.254;15.592;2023-02-22T03:59:51;5.80;85.20
76537;DHT22;65381;51.254;15.592;2023-02-22T04:02:20;5.80;85.10
76537;DHT22;65381;51.254;15.592;2023-02-22T04:04:53;5.90;85.10
76537;DHT22;65381;51.254;15.592;2023-02-22T04:07:21;5.90;85.00
76537;DHT22;65381;51.254;15.592;2023-02-22T04:09:50;5.90;85.00
76537;DHT22;65381;51.254;15.592;2023-02-22T04:12:18;5.90;85.10
76537;DHT22;65381;51.254;15.592;2023-02-22T04:14:56;5.80;85.10
76537;DHT22;65381;51.254;15.592;2023-02-22T04:17:25;5.80;85.10
76537;DHT22;65381;51.254;15.592;2023-02-22T04:19:55;5.80;85.10
76537;DHT22;65381;51.254;15.592;2023-02-22T04:22:25;5.80;85.20
76537;DHT22;65381;51.254;15.592;2023-02-22T04:24:54;5.80;85.20
76537;DHT22;65381;51.254;15.592;2023-02-22T04:27:23;5.90;85.30
76537;DHT22;65381;51.254;15.592;2023-02-22T04:29:52;5.90;85.20
76537;DHT22;65381;51.254;15.592;2023-02-22T04:32:21;5.90;85.20
76537;DHT22;65381;51.254;15.592;2023-02-22T04:34:49;5.90;85.30
76537;DHT22;65381;51.254;15.592;2023-02-22T04:37:18;5.90;85.30
76537;DHT22;65381;51.254;15.592;2023-02-22T04:39:46;5.90;85.20
76537;DHT22;65381;51.254;15.592;2023-02-22T04:42:15;5.90;85.20
76537;DHT22;65381;51.254;15.592;2023-02-22T04:44:43;6.00;85.20
76537;DHT22;65381;51.254;15.592;2023-02-22T04:47:11;6.00;85.20
76537;DHT22;65381;51.254;15.592;2023-02-22T04:49:39;6.00;85.10
76537;DHT22;65381;51.254;15.592;2023-02-22T04:52:07;6.10;85.10
76537;DHT22;65381;51.254;15.592;2023-02-22T04:54:37;6.10;85.00
76537;DHT22;65381;51.254;15.592;2023-02-22T04:57:06;6.10;85.00
76537;DHT22;65381;51.254;15.592;2023-02-22T04:59:34;6.20;84.90
76537;DHT22;65381;51.254;15.592;2023-02-22T05:02:02;6.20;84.80
76537;DHT22;65381;51.254;15.592;2023-02-22T05:04:30;6.20;84.80
76537;DHT22;65381;51.254;15.592;2023-02-22T05:06:59;6.20;84.80
76537;DHT22;65381;51.254;15.592;2023-02-22T05:09:26;6.20;84.80
76537;DHT22;65381;51.254;15.592;2023-02-22T05:11:55;6.20;84.80
76537;DHT22;65381;51.254;15.592;2023-02-22T05:14:23;6.30;84.90
76537;DHT22;65381;51.254;15.592;2023-02-22T05:17:06;6.30;84.70
76537;DHT22;65381;51.254;15.592;2023-02-22T05:19:35;6.40;84.70
76537;DHT22;65381;51.254;15.592;2023-02-22T05:22:07;6.40;84.70
76537;DHT22;65381;51.254;15.592;2023-02-22T05:24:35;6.40;84.70
76537;DHT22;65381;51.254;15.592;2023-02-22T05:27:04;6.50;84.60
76537;DHT22;65381;51.254;15.592;2023-02-22T05:29:32;6.50;84.60
76537;DHT22;65381;51.254;15.592;2023-02-22T05:32:01;6.50;84.60
76537;DHT22;65381;51.254;15.592;2023-02-22T05:34:33;6.60;84.60
76537;DHT22;65381;51.254;15.592;2023-02-22T05:37:04;6.60;84.60
76537;DHT22;65381;51.254;15.592;2023-02-22T05:39:32;6.60;84.60
76537;DHT22;65381;51.254;15.592;2023-02-22T05:42:00;6.60;84.60
76537;DHT22;65381;51.254;15.592;2023-02-22T05:44:28;6.70;84.50
76537;DHT22;65381;51.254;15.592;2023-02-22T05:46:56;6.70;84.50
76537;DHT22;65381;51.254;15.592;2023-02-22T05:49:24;6.60;84.50
76537;DHT22;65381;51.254;15.592;2023-02-22T05:51:53;6.60;84.60
76537;DHT22;65381;51.254;15.592;2023-02-22T05:54:26;6.60;84.60
76537;DHT22;65381;51.254;15.592;2023-02-22T05:56:54;6.70;84.50
76537;DHT22;65381;51.254;15.592;2023-02-22T05:59:23;6.60;84.50
76537;DHT22;65381;51.254;15.592;2023-02-22T06:01:51;6.70;84.50
76537;DHT22;65381;51.254;15.592;2023-02-22T06:04:19;6.60;84.50
76537;DHT22;65381;51.254;15.592;2023-02-22T06:06:48;6.70;84.60
76537;DHT22;65381;51.254;15.592;2023-02-22T06:09:15;6.70;84.50
76537;DHT22;65381;51.254;15.592;2023-02-22T06:11:44;6.60;84.30
76537;DHT22;65381;51.254;15.592;2023-02-22T06:14:12;6.50;84.40
76537;DHT22;65381;51.254;15.592;2023-02-22T06:16:41;6.40;84.50
76537;DHT22;65381;51.254;15.592;2023-02-22T06:19:10;6.40;84.60
76537;DHT22;65381;51.254;15.592;2023-02-22T06:21:38;6.40;84.70
76537;DHT22;65381;51.254;15.592;2023-02-22T06:24:09;6.40;84.80
76537;DHT22;65381;51.254;15.592;2023-02-22T06:26:37;6.50;84.90
76537;DHT22;65381;51.254;15.592;2023-02-22T06:29:05;6.50;84.80
76537;DHT22;65381;51.254;15.592;2023-02-22T06:31:33;6.60;84.80
76537;DHT22;65381;51.254;15.592;2023-02-22T06:34:04;6.70;84.70
76537;DHT22;65381;51.254;15.592;2023-02-22T06:36:32;6.70;84.60
76537;DHT22;65381;51.254;15.592;2023-02-22T06:39:00;6.70;84.70
76537;DHT22;65381;51.254;15.592;2023-02-22T06:41:29;6.80;84.70
76537;DHT22;65381;51.254;15.592;2023-02-22T06:43:57;6.80;84.60
76537;DHT22;65381;51.254;15.592;2023-02-22T06:46:25;6.90;84.60
76537;DHT22;65381;51.254;15.592;2023-02-22T06:48:53;6.90;84.60
76537;DHT22;65381;51.254;15.592;2023-02-22T06:51:22;6.90;84.50
76537;DHT22;65381;51.254;15.592;2023-02-22T06:53:50;7.00;84.60
76537;DHT22;65381;51.254;15.592;2023-02-22T06:56:18;7.00;84.70
76537;DHT22;65381;51.254;15.592;2023-02-22T06:58:46;7.00;84.70
76537;DHT22;65381;51.254;15.592;2023-02-22T07:01:16;7.10;84.80
76537;DHT22;65381;51.254;15.592;2023-02-22T07:03:48;7.20;84.70
76537;DHT22;65381;51.254;15.592;2023-02-22T07:06:18;7.20;84.70
76537;DHT22;65381;51.254;15.592;2023-02-22T07:08:47;7.30;84.60
76537;DHT22;65381;51.254;15.592;2023-02-22T07:11:17;7.20;84.50
76537;DHT22;65381;51.254;15.592;2023-02-22T07:13:45;7.30;84.70
76537;DHT22;65381;51.254;15.592;2023-02-22T07:16:13;7.40;84.90
76537;DHT22;65381;51.254;15.592;2023-02-22T07:18:41;7.40;85.00
76537;DHT22;65381;51.254;15.592;2023-02-22T07:21:10;7.50;85.00
76537;DHT22;65381;51.254;15.592;2023-02-22T07:23:38;7.50;84.90
76537;DHT22;65381;51.254;15.592;2023-02-22T07:26:06;7.50;84.80
76537;DHT22;65381;51.254;15.592;2023-02-22T07:28:34;7.50;84.90
76537;DHT22;65381;51.254;15.592;2023-02-22T07:31:03;7.60;85.00
76537;DHT22;65381;51.254;15.592;2023-02-22T07:33:32;7.60;85.00
76537;DHT22;65381;51.254;15.592;2023-02-22T07:36:04;7.70;85.00
76537;DHT22;65381;51.254;15.592;2023-02-22T07:38:32;7.80;84.80
76537;DHT22;65381;51.254;15.592;2023-02-22T07:41:01;7.80;84.70
76537;DHT22;65381;51.254;15.592;2023-02-22T07:43:30;7.80;84.80
76537;DHT22;65381;51.254;15.592;2023-02-22T07:46:00;7.80;84.80
76537;DHT22;65381;51.254;15.592;2023-02-22T07:48:30;7.80;84.80
76537;DHT22;65381;51.254;15.592;2023-02-22T07:50:59;7.80;84.70
76537;DHT22;65381;51.254;15.592;2023-02-22T07:53:29;7.80;84.70
76537;DHT22;65381;51.254;15.592;2023-02-22T07:56:02;7.80;84.80
76537;DHT22;65381;51.254;15.592;2023-02-22T07:58:32;7.80;84.80
76537;DHT22;65381;51.254;15.592;2023-02-22T08:01:02;7.80;84.90
76537;DHT22;65381;51.254;15.592;2023-02-22T08:03:33;8.00;85.00
76537;DHT22;65381;51.254;15.592;2023-02-22T08:06:05;8.00;85.00
76537;DHT22;65381;51.254;15.592;2023-02-22T08:08:35;8.10;84.90
76537;DHT22;65381;51.254;15.592;2023-02-22T08:11:03;8.10;85.00
76537;DHT22;65381;51.254;15.592;2023-02-22T08:13:32;8.30;85.00
76537;DHT22;65381;51.254;15.592;2023-02-22T08:16:00;8.40;84.80
76537;DHT22;65381;51.254;15.592;2023-02-22T08:18:28;8.50;84.70
76537;DHT22;65381;51.254;15.592;2023-02-22T08:20:57;8.60;84.80
76537;DHT22;65381;51.254;15.592;2023-02-22T08:23:25;8.60;85.00
76537;DHT22;65381;51.254;15.592;2023-02-22T08:25:54;8.80;85.00
76537;DHT22;65381;51.254;15.592;2023-02-22T08:28:23;8.90;85.20
76537;DHT22;65381;51.254;15.592;2023-02-22T08:30:52;9.00;85.00
76537;DHT22;65381;51.254;15.592;2023-02-22T08:33:21;9.00;84.90
76537;DHT22;65381;51.254;15.592;2023-02-22T08:35:50;9.00;85.00
76537;DHT22;65381;51.254;15.592;2023-02-22T08:38:25;9.20;84.90
76537;DHT22;65381;51.254;15.592;2023-02-22T08:40:54;9.20;85.00
76537;DHT22;65381;51.254;15.592;2023-02-22T08:43:23;9.30;84.40
76537;DHT22;65381;51.254;15.592;2023-02-22T08:45:58;9.40;84.60
76537;DHT22;65381;51.254;15.592;2023-02-22T08:48:28;9.40;84.50
76537;DHT22;65381;51.254;15.592;2023-02-22T08:50:57;9.50;84.40
76537;DHT22;65381;51.254;15.592;2023-02-22T08:53:25;9.50;84.50
76537;DHT22;65381;51.254;15.592;2023-02-22T08:55:53;9.60;84.20
76537;DHT22;65381;51.254;15.592;2023-02-22T08:58:22;9.60;84.10
76537;DHT22;65381;51.254;15.592;2023-02-22T09:00:51;9.70;84.10
76537;DHT22;65381;51.254;15.592;2023-02-22T09:03:23;9.80;84.20
76537;DHT22;65381;51.254;15.592;2023-02-22T09:05:52;10.00;84.20
76537;DHT22;65381;51.254;15.592;2023-02-22T09:08:20;10.20;84.10
76537;DHT22;65381;51.254;15.592;2023-02-22T09:10:51;10.40;84.00
76537;DHT22;65381;51.254;15.592;2023-02-22T09:13:19;10.50;83.90
76537;DHT22;65381;51.254;15.592;2023-02-22T09:15:49;10.60;83.50
76537;DHT22;65381;51.254;15.592;2023-02-22T09:18:17;10.60;83.20
76537;DHT22;65381;51.254;15.592;2023-02-22T09:20:45;10.50;83.20
76537;DHT22;65381;51.254;15.592;2023-02-22T09:23:13;10.50;83.30
76537;DHT22;65381;51.254;15.592;2023-02-22T09:25:48;10.60;83.60
76537;DHT22;65381;51.254;15.592;2023-02-22T09:28:16;10.70;83.40
76537;DHT22;65381;51.254;15.592;2023-02-22T09:30:45;10.80;83.60
76537;DHT22;65381;51.254;15.592;2023-02-22T09:33:17;11.00;83.50
76537;DHT22;65381;51.254;15.592;2023-02-22T09:35:47;11.10;83.40
76537;DHT22;65381;51.254;15.592;2023-02-22T09:38:19;11.10;83.20
76537;DHT22;65381;51.254;15.592;2023-02-22T09:43:44;10.90;82.10
76537;DHT22;65381;51.254;15.592;2023-02-22T09:46:32;10.80;82.50
76537;DHT22;65381;51.254;15.592;2023-02-22T09:52:39;11.10;82.80
76537;DHT22;65381;51.254;15.592;2023-02-22T09:57:52;11.10;81.60
76537;DHT22;65381;51.254;15.592;2023-02-22T10:00:37;11.10;81.40
76537;DHT22;65381;51.254;15.592;2023-02-22T10:06:14;11.10;81.20
76537;DHT22;65381;51.254;15.592;2023-02-22T10:08:44;11.00;81.30
76537;DHT22;65381;51.254;15.592;2023-02-22T10:16:33;11.40;82.00
76537;DHT22;65381;51.254;15.592;2023-02-22T10:25:09;11.70;81.20
76537;DHT22;65381;51.254;15.592;2023-02-22T10:27:57;11.50;80.40
76537;DHT22;65381;51.254;15.592;2023-02-22T10:30:32;11.40;81.20
76537;DHT22;65381;51.254;15.592;2023-02-22T10:33:45;11.50;81.50
76537;DHT22;65381;51.254;15.592;2023-02-22T10:36:17;11.50;81.10
76537;DHT22;65381;51.254;15.592;2023-02-22T10:38:59;11.60;81.20
76537;DHT22;65381;51.254;15.592;2023-02-22T10:41:32;11.60;81.10
76537;DHT22;65381;51.254;15.592;2023-02-22T10:44:01;11.60;81.00
76537;DHT22;65381;51.254;15.592;2023-02-22T10:46:31;11.50;81.10
76537;DHT22;65381;51.254;15.592;2023-02-22T10:49:03;11.50;81.30
76537;DHT22;65381;51.254;15.592;2023-02-22T10:51:34;11.50;81.10
76537;DHT22;65381;51.254;15.592;2023-02-22T10:56:52;11.30;79.50
76537;DHT22;65381;51.254;15.592;2023-02-22T10:59:34;11.10;79.90
76537;DHT22;65381;51.254;15.592;2023-02-22T11:04:54;11.00;79.90
76537;DHT22;65381;51.254;15.592;2023-02-22T11:07:32;11.00;79.20
76537;DHT22;65381;51.254;15.592;2023-02-22T11:10:01;10.90;79.70
76537;DHT22;65381;51.254;15.592;2023-02-22T11:12:36;11.00;80.20
76537;DHT22;65381;51.254;15.592;2023-02-22T11:17:54;11.00;79.50
76537;DHT22;65381;51.254;15.592;2023-02-22T11:20:29;11.00;79.90
76537;DHT22;65381;51.254;15.592;2023-02-22T11:23:02;11.00;79.90
76537;DHT22;65381;51.254;15.592;2023-02-22T11:25:35;11.10;80.20
76537;DHT22;65381;51.254;15.592;2023-02-22T11:28:26;11.30;79.80
76537;DHT22;65381;51.254;15.592;2023-02-22T11:31:14;11.10;79.30
76537;DHT22;65381;51.254;15.592;2023-02-22T11:33:53;11.10;79.30
76537;DHT22;65381;51.254;15.592;2023-02-22T11:36:41;11.10;79.10
76537;DHT22;65381;51.254;15.592;2023-02-22T11:39:26;11.20;79.40
76537;DHT22;65381;51.254;15.592;2023-02-22T11:41:55;11.20;78.90
76537;DHT22;65381;51.254;15.592;2023-02-22T11:46:55;11.30;77.90
76537;DHT22;65381;51.254;15.592;2023-02-22T11:49:33;11.50;78.60
76537;DHT22;65381;51.254;15.592;2023-02-22T11:52:15;11.70;78.30
76537;DHT22;65381;51.254;15.592;2023-02-22T11:57:43;12.00;78.10
76537;DHT22;65381;51.254;15.592;2023-02-22T12:00:51;12.10;77.40
76537;DHT22;65381;51.254;15.592;2023-02-22T12:06:46;12.00;76.10
76537;DHT22;65381;51.254;15.592;2023-02-22T12:14:40;11.90;77.50
76537;DHT22;65381;51.254;15.592;2023-02-22T12:17:19;11.90;76.80
76537;DHT22;65381;51.254;15.592;2023-02-22T12:20:16;11.70;76.40
76537;DHT22;65381;51.254;15.592;2023-02-22T12:26:08;11.70;77.10
76537;DHT22;65381;51.254;15.592;2023-02-22T12:28:52;11.90;76.70
76537;DHT22;65381;51.254;15.592;2023-02-22T12:31:29;12.30;77.60
76537;DHT22;65381;51.254;15.592;2023-02-22T12:36:46;14.90;75.40
76537;DHT22;65381;51.254;15.592;2023-02-22T12:45:41;14.90;73.70
76537;DHT22;65381;51.254;15.592;2023-02-22T12:50:58;14.30;74.50
76537;DHT22;65381;51.254;15.592;2023-02-22T12:53:34;13.90;72.50
76537;DHT22;65381;51.254;15.592;2023-02-22T12:56:28;13.20;72.90
76537;DHT22;65381;51.254;15.592;2023-02-22T13:02:33;12.60;74.30
76537;DHT22;65381;51.254;15.592;2023-02-22T13:05:03;12.50;74.40
76537;DHT22;65381;51.254;15.592;2023-02-22T13:13:28;12.30;75.10
76537;DHT22;65381;51.254;15.592;2023-02-22T13:24:27;13.50;75.20
76537;DHT22;65381;51.254;15.592;2023-02-22T13:27:06;14.10;73.90
76537;DHT22;65381;51.254;15.592;2023-02-22T13:29:47;14.10;72.00
76537;DHT22;65381;51.254;15.592;2023-02-22T13:32:40;14.10;73.20
76537;DHT22;65381;51.254;15.592;2023-02-22T13:52:25;14.00;73.10
76537;DHT22;65381;51.254;15.592;2023-02-22T13:54:59;13.90;73.40
76537;DHT22;65381;51.254;15.592;2023-02-22T13:57:42;13.90;73.00
76537;DHT22;65381;51.254;15.592;2023-02-22T14:00:21;13.70;72.80
76537;DHT22;65381;51.254;15.592;2023-02-22T14:13:31;12.30;72.70
76537;DHT22;65381;51.254;15.592;2023-02-22T14:16:17;12.10;72.70
76537;DHT22;65381;51.254;15.592;2023-02-22T14:18:49;12.00;73.10
76537;DHT22;65381;51.254;15.592;2023-02-22T14:21:21;11.90;73.10
76537;DHT22;65381;51.254;15.592;2023-02-22T14:23:50;11.80;72.60
76537;DHT22;65381;51.254;15.592;2023-02-22T14:26:33;11.70;72.80
76537;DHT22;65381;51.254;15.592;2023-02-22T14:32:00;11.50;72.60
76537;DHT22;65381;51.254;15.592;2023-02-22T14:34:56;11.30;72.90
76537;DHT22;65381;51.254;15.592;2023-02-22T14:37:36;11.10;73.00
76537;DHT22;65381;51.254;15.592;2023-02-22T14:40:18;11.00;72.90
76537;DHT22;65381;51.254;15.592;2023-02-22T14:43:11;10.90;72.90
76537;DHT22;65381;51.254;15.592;2023-02-22T14:45:58;10.80;73.20
76537;DHT22;65381;51.254;15.592;2023-02-22T14:48:39;10.70;72.80
76537;DHT22;65381;51.254;15.592;2023-02-22T14:51:29;10.60;72.90
76537;DHT22;65381;51.254;15.592;2023-02-22T14:54:25;10.50;73.00
76537;DHT22;65381;51.254;15.592;2023-02-22T14:59:55;10.40;73.20
76537;DHT22;65381;51.254;15.592;2023-02-22T15:02:37;10.40;73.20
76537;DHT22;65381;51.254;15.592;2023-02-22T15:05:05;10.30;73.20
76537;DHT22;65381;51.254;15.592;2023-02-22T15:07:33;10.30;73.30
76537;DHT22;65381;51.254;15.592;2023-02-22T15:10:18;10.20;73.10
76537;DHT22;65381;51.254;15.592;2023-02-22T15:12:53;10.20;73.20
76537;DHT22;65381;51.254;15.592;2023-02-22T15:15:37;10.00;73.00
76537;DHT22;65381;51.254;15.592;2023-02-22T15:18:46;10.00;73.20
76537;DHT22;65381;51.254;15.592;2023-02-22T15:21:13;9.90;73.30
76537;DHT22;65381;51.254;15.592;2023-02-22T15:26:38;9.70;73.50
76537;DHT22;65381;51.254;15.592;2023-02-22T15:29:47;9.60;73.40
76537;DHT22;65381;51.254;15.592;2023-02-22T15:35:27;9.40;73.60
76537;DHT22;65381;51.254;15.592;2023-02-22T15:38:04;9.30;73.60
76537;DHT22;65381;51.254;15.592;2023-02-22T15:40:34;9.20;73.80
76537;DHT22;65381;51.254;15.592;2023-02-22T15:43:17;9.10;73.80
76537;DHT22;65381;51.254;15.592;2023-02-22T15:45:48;9.00;73.80
76537;DHT22;65381;51.254;15.592;2023-02-22T15:48:17;9.00;73.90
76537;DHT22;65381;51.254;15.592;2023-02-22T15:51:00;8.90;74.00
76537;DHT22;65381;51.254;15.592;2023-02-22T15:53:45;8.90;74.00
76537;DHT22;65381;51.254;15.592;2023-02-22T15:56:26;8.80;74.00
76537;DHT22;65381;51.254;15.592;2023-02-22T15:59:00;8.70;74.00
76537;DHT22;65381;51.254;15.592;2023-02-22T16:01:42;8.70;74.00
76537;DHT22;65381;51.254;15.592;2023-02-22T16:04:17;8.60;74.10
76537;DHT22;65381;51.254;15.592;2023-02-22T16:06:46;8.60;74.00
76537;DHT22;65381;51.254;15.592;2023-02-22T16:09:20;8.50;74.00
76537;DHT22;65381;51.254;15.592;2023-02-22T16:14:49;8.30;74.10
76537;DHT22;65381;51.254;15.592;2023-02-22T16:17:39;8.30;74.00
76537;DHT22;65381;51.254;15.592;2023-02-22T16:22:57;8.20;74.10
76537;DHT22;65381;51.254;15.592;2023-02-22T16:25:33;8.10;74.20
76537;DHT22;65381;51.254;15.592;2023-02-22T16:28:26;8.10;74.10
76537;DHT22;65381;51.254;15.592;2023-02-22T16:30:58;8.00;74.20
76537;DHT22;65381;51.254;15.592;2023-02-22T16:33:27;8.00;74.20
76537;DHT22;65381;51.254;15.592;2023-02-22T16:36:04;8.00;74.20
76537;DHT22;65381;51.254;15.592;2023-02-22T16:38:33;8.00;74.30
76537;DHT22;65381;51.254;15.592;2023-02-22T16:41:06;7.90;74.50
76537;DHT22;65381;51.254;15.592;2023-02-22T16:43:35;7.80;74.30
76537;DHT22;65381;51.254;15.592;2023-02-22T16:46:06;7.80;74.50
76537;DHT22;65381;51.254;15.592;2023-02-22T16:48:34;7.70;74.70
76537;DHT22;65381;51.254;15.592;2023-02-22T16:51:16;7.60;74.80
76537;DHT22;65381;51.254;15.592;2023-02-22T16:53:46;7.60;74.90
76537;DHT22;65381;51.254;15.592;2023-02-22T16:56:18;7.60;74.90
76537;DHT22;65381;51.254;15.592;2023-02-22T16:58:49;7.60;75.00
76537;DHT22;65381;51.254;15.592;2023-02-22T17:01:20;7.60;75.00
76537;DHT22;65381;51.254;15.592;2023-02-22T17:03:51;7.60;75.00
76537;DHT22;65381;51.254;15.592;2023-02-22T17:06:22;7.60;75.20
76537;DHT22;65381;51.254;15.592;2023-02-22T17:08:51;7.50;75.20
76537;DHT22;65381;51.254;15.592;2023-02-22T17:11:20;7.50;75.20
76537;DHT22;65381;51.254;15.592;2023-02-22T17:13:51;7.50;75.20
76537;DHT22;65381;51.254;15.592;2023-02-22T17:16:22;7.50;75.30
76537;DHT22;65381;51.254;15.592;2023-02-22T17:18:52;7.40;75.40
76537;DHT22;65381;51.254;15.592;2023-02-22T17:21:21;7.40;75.40
76537;DHT22;65381;51.254;15.592;2023-02-22T17:23:50;7.40;75.40
76537;DHT22;65381;51.254;15.592;2023-02-22T17:26:21;7.20;75.50
76537;DHT22;65381;51.254;15.592;2023-02-22T17:28:49;7.20;75.50
76537;DHT22;65381;51.254;15.592;2023-02-22T17:31:21;7.20;75.70
76537;DHT22;65381;51.254;15.592;2023-02-22T17:33:56;7.20;75.70
76537;DHT22;65381;51.254;15.592;2023-02-22T17:36:30;7.10;75.70
76537;DHT22;65381;51.254;15.592;2023-02-22T17:38:59;7.10;75.80
76537;DHT22;65381;51.254;15.592;2023-02-22T17:41:29;7.00;75.80
76537;DHT22;65381;51.254;15.592;2023-02-22T17:43:59;7.10;75.80
76537;DHT22;65381;51.254;15.592;2023-02-22T17:46:28;7.00;75.90
76537;DHT22;65381;51.254;15.592;2023-02-22T17:49:00;7.00;75.90
76537;DHT22;65381;51.254;15.592;2023-02-22T17:51:30;7.00;75.90
76537;DHT22;65381;51.254;15.592;2023-02-22T17:53:58;7.00;75.90
76537;DHT22;65381;51.254;15.592;2023-02-22T17:56:28;7.00;75.90
76537;DHT22;65381;51.254;15.592;2023-02-22T17:58:57;7.00;75.90
76537;DHT22;65381;51.254;15.592;2023-02-22T18:01:30;7.00;75.90
76537;DHT22;65381;51.254;15.592;2023-02-22T18:04:03;7.00;75.70
76537;DHT22;65381;51.254;15.592;2023-02-22T18:06:33;6.90;75.80
76537;DHT22;65381;51.254;15.592;2023-02-22T18:09:03;6.90;75.80
76537;DHT22;65381;51.254;15.592;2023-02-22T18:11:39;6.80;75.90
76537;DHT22;65381;51.254;15.592;2023-02-22T18:14:10;6.80;76.10
76537;DHT22;65381;51.254;15.592;2023-02-22T18:16:46;6.80;76.10
76537;DHT22;65381;51.254;15.592;2023-02-22T18:19:16;6.80;76.20
76537;DHT22;65381;51.254;15.592;2023-02-22T18:21:50;6.80;76.20
76537;DHT22;65381;51.254;15.592;2023-02-22T18:24:20;6.70;76.20
76537;DHT22;65381;51.254;15.592;2023-02-22T18:26:53;6.70;76.30
76537;DHT22;65381;51.254;15.592;2023-02-22T18:29:22;6.70;76.30
76537;DHT22;65381;51.254;15.592;2023-02-22T18:31:52;6.70;76.40
76537;DHT22;65381;51.254;15.592;2023-02-22T18:34:22;6.70;76.40
76537;DHT22;65381;51.254;15.592;2023-02-22T18:36:53;6.70;76.50
76537;DHT22;65381;51.254;15.592;2023-02-22T18:39:26;6.70;76.50
76537;DHT22;65381;51.254;15.592;2023-02-22T18:41:59;6.60;76.40